createdAt,value
2018-07-02T00:00:05.640Z,979.74
2018-07-02T00:01:05.436Z,979.69
2018-07-02T00:02:05.777Z,979.75
2018-07-02T00:03:05.642Z,979.77
2018-07-02T00:04:05.359Z,979.66
2018-07-02T00:05:06.128Z,979.72
2018-07-02T00:06:05.027Z,979.63
2018-07-02T00:07:05.395Z,979.69
2018-07-02T00:08:04.931Z,979.75
2018-07-02T00:09:06.568Z,979.72
2018-07-02T00:10:10.446Z,979.63
2018-07-02T00:11:05.238Z,979.75
2018-07-02T00:12:06.094Z,979.72
2018-07-02T00:13:05.162Z,979.75
2018-07-02T00:14:05.332Z,979.69
2018-07-02T00:15:05.850Z,979.72
2018-07-02T00:16:15.094Z,979.67
2018-07-02T00:17:06.310Z,979.72
2018-07-02T00:18:05.909Z,979.58
2018-07-02T00:19:05.524Z,979.61
2018-07-02T00:20:05.042Z,979.73
2018-07-02T00:21:05.785Z,979.70
2018-07-02T00:22:10.748Z,979.56
2018-07-02T00:23:05.137Z,979.64
2018-07-02T00:24:05.198Z,979.78
2018-07-02T00:25:05.401Z,979.73
2018-07-02T00:26:06.187Z,979.50
2018-07-02T00:27:05.812Z,979.59
2018-07-02T00:28:04.930Z,979.67
2018-07-02T00:29:05.497Z,979.65
2018-07-02T00:30:06.097Z,979.62
2018-07-02T00:31:05.286Z,979.65
2018-07-02T00:32:05.057Z,979.65
2018-07-02T00:33:05.930Z,979.53
2018-07-02T00:34:06.274Z,979.53
2018-07-02T00:35:05.476Z,979.65
2018-07-02T00:36:05.415Z,979.51
2018-07-02T00:37:05.496Z,979.59
2018-07-02T00:38:05.525Z,979.62
2018-07-02T00:39:05.738Z,979.59
2018-07-02T00:40:05.010Z,979.62
2018-07-02T00:41:05.773Z,979.57
2018-07-02T00:42:06.194Z,979.65
2018-07-02T00:43:05.671Z,979.65
2018-07-02T00:44:05.250Z,979.62
2018-07-02T00:45:06.344Z,979.51
2018-07-02T00:46:05.527Z,979.68
2018-07-02T00:47:05.648Z,979.57
2018-07-02T00:48:05.600Z,979.54
2018-07-02T00:49:06.194Z,979.60
2018-07-02T00:50:05.049Z,979.54
2018-07-02T00:51:06.107Z,979.54
2018-07-02T00:52:05.867Z,979.60
2018-07-02T00:53:05.120Z,979.51
2018-07-02T00:54:05.030Z,979.49
2018-07-02T00:55:05.927Z,979.49
2018-07-02T00:56:05.865Z,979.40
2018-07-02T00:57:05.522Z,979.46
2018-07-02T00:58:04.969Z,979.41
2018-07-02T00:59:05.819Z,979.41
2018-07-02T01:00:05.547Z,979.35
2018-07-02T01:01:05.795Z,979.41
2018-07-02T01:02:05.754Z,979.44
2018-07-02T01:03:06.673Z,979.33
2018-07-02T01:04:05.540Z,979.44
2018-07-02T01:05:05.620Z,979.53
2018-07-02T01:06:06.011Z,979.41
2018-07-02T01:07:05.798Z,979.42
2018-07-02T01:08:05.312Z,979.45
2018-07-02T01:09:05.954Z,979.45
2018-07-02T01:10:04.945Z,979.36
2018-07-02T01:11:05.184Z,979.39
2018-07-02T01:12:05.213Z,979.42
2018-07-02T01:13:06.674Z,979.43
2018-07-02T01:14:05.882Z,979.34
2018-07-02T01:15:04.935Z,979.48
2018-07-02T01:16:06.160Z,979.34
2018-07-02T01:17:05.737Z,979.37
2018-07-02T01:18:05.994Z,979.37
2018-07-02T01:19:11.024Z,979.46
2018-07-02T01:20:05.455Z,979.37
2018-07-02T01:21:05.189Z,979.37
2018-07-02T01:22:06.131Z,979.40
2018-07-02T01:23:05.376Z,979.28
2018-07-02T01:24:05.709Z,979.34
2018-07-02T01:25:05.203Z,979.34
2018-07-02T01:26:06.104Z,979.34
2018-07-02T01:27:05.267Z,979.34
2018-07-02T01:28:05.301Z,979.31
2018-07-02T01:29:05.189Z,979.34
2018-07-02T01:30:05.724Z,979.26
2018-07-02T01:31:05.942Z,979.23
2018-07-02T01:32:05.563Z,979.40
2018-07-02T01:33:05.049Z,979.20
2018-07-02T01:34:05.427Z,979.43
2018-07-02T01:35:05.830Z,979.26
2018-07-02T01:36:06.031Z,979.26
2018-07-02T01:37:04.976Z,979.32
2018-07-02T01:38:05.110Z,979.32
2018-07-02T01:39:05.582Z,979.23
2018-07-02T01:40:05.709Z,979.23
2018-07-02T01:41:06.414Z,979.26
2018-07-02T01:42:05.470Z,979.24
2018-07-02T01:43:05.627Z,979.26
2018-07-02T01:44:05.522Z,979.32
2018-07-02T01:45:05.577Z,979.21
2018-07-02T01:46:04.889Z,979.38
2018-07-02T01:47:05.030Z,979.24
2018-07-02T01:48:05.093Z,979.24
2018-07-02T01:49:05.473Z,979.32
2018-07-02T01:50:05.513Z,979.24
2018-07-02T01:51:05.893Z,979.27
2018-07-02T01:52:05.803Z,979.41
2018-07-02T01:53:05.442Z,979.30
2018-07-02T01:54:05.030Z,979.35
2018-07-02T01:55:05.046Z,979.41
2018-07-02T01:56:06.210Z,979.47
2018-07-02T01:57:05.786Z,979.56
2018-07-02T01:58:05.500Z,979.24
2018-07-02T01:59:05.486Z,979.36
2018-07-02T02:00:05.626Z,979.30
2018-07-02T02:01:06.469Z,979.39
2018-07-02T02:02:05.148Z,979.33
2018-07-02T02:03:06.026Z,979.33
2018-07-02T02:04:05.122Z,979.28
2018-07-02T02:05:05.421Z,979.25
2018-07-02T02:06:05.549Z,979.39
2018-07-02T02:07:05.681Z,979.28
2018-07-02T02:08:05.509Z,979.42
2018-07-02T02:09:05.674Z,979.42
2018-07-02T02:10:05.460Z,979.34
2018-07-02T02:11:05.920Z,979.23
2018-07-02T02:12:05.094Z,979.40
2018-07-02T02:13:05.832Z,979.23
2018-07-02T02:14:06.367Z,979.32
2018-07-02T02:15:05.699Z,979.32
2018-07-02T02:16:05.649Z,979.23
2018-07-02T02:17:05.754Z,979.29
2018-07-02T02:18:06.031Z,979.18
2018-07-02T02:19:05.448Z,979.29
2018-07-02T02:20:05.620Z,979.23
2018-07-02T02:21:10.680Z,979.32
2018-07-02T02:22:06.320Z,979.38
2018-07-02T02:23:05.118Z,979.41
2018-07-02T02:24:06.362Z,979.32
2018-07-02T02:25:05.681Z,979.32
2018-07-02T02:26:05.278Z,979.21
2018-07-02T02:27:05.617Z,979.49
2018-07-02T02:28:04.942Z,979.49
2018-07-02T02:29:05.037Z,979.41
2018-07-02T02:30:06.341Z,979.35
2018-07-02T02:31:05.747Z,979.35
2018-07-02T02:32:05.947Z,979.30
2018-07-02T02:33:05.962Z,979.35
2018-07-02T02:34:06.197Z,979.38
2018-07-02T02:35:05.946Z,979.47
2018-07-02T02:36:05.567Z,979.47
2018-07-02T02:37:05.049Z,979.33
2018-07-02T02:38:04.990Z,979.33
2018-07-02T02:39:05.627Z,979.39
2018-07-02T02:40:05.895Z,979.33
2018-07-02T02:41:05.509Z,979.36
2018-07-02T02:42:05.818Z,979.30
2018-07-02T02:43:05.137Z,979.25
2018-07-02T02:44:05.178Z,979.30
2018-07-02T02:45:05.439Z,979.36
2018-07-02T02:46:05.468Z,979.42
2018-07-02T02:47:05.563Z,979.36
2018-07-02T02:48:05.758Z,979.36
2018-07-02T02:49:05.201Z,979.48
2018-07-02T02:50:05.114Z,979.39
2018-07-02T02:51:06.319Z,979.48
2018-07-02T02:52:05.443Z,979.39
2018-07-02T02:53:05.562Z,979.37
2018-07-02T02:54:05.526Z,979.34
2018-07-02T02:55:05.707Z,979.42
2018-07-02T02:56:04.968Z,979.45
2018-07-02T02:57:05.625Z,979.34
2018-07-02T02:58:05.782Z,979.48
2018-07-02T02:59:06.170Z,979.46
2018-07-02T03:00:05.055Z,979.46
2018-07-02T03:01:05.479Z,979.37
2018-07-02T03:02:05.443Z,979.43
2018-07-02T03:03:05.449Z,979.40
2018-07-02T03:04:05.612Z,979.40
2018-07-02T03:05:05.564Z,979.29
2018-07-02T03:06:05.656Z,979.38
2018-07-02T03:07:05.526Z,979.29
2018-07-02T03:08:05.776Z,979.26
2018-07-02T03:09:05.953Z,979.35
2018-07-02T03:10:05.243Z,979.26
2018-07-02T03:11:05.743Z,979.46
2018-07-02T03:12:05.836Z,979.29
2018-07-02T03:13:05.343Z,979.41
2018-07-02T03:14:05.057Z,979.41
2018-07-02T03:15:05.771Z,979.41
2018-07-02T03:16:05.808Z,979.35
2018-07-02T03:17:05.881Z,979.30
2018-07-02T03:18:05.262Z,979.35
2018-07-02T03:19:05.773Z,979.32
2018-07-02T03:20:06.509Z,979.41
2018-07-02T03:21:05.891Z,979.21
2018-07-02T03:22:05.398Z,979.24
2018-07-02T03:23:05.954Z,979.47
2018-07-02T03:24:05.312Z,979.38
2018-07-02T03:25:04.999Z,979.36
2018-07-02T03:26:05.845Z,979.36
2018-07-02T03:27:05.818Z,979.22
2018-07-02T03:28:05.631Z,979.22
2018-07-02T03:29:05.677Z,979.24
2018-07-02T03:30:05.272Z,979.30
2018-07-02T03:31:05.881Z,979.30
2018-07-02T03:32:04.957Z,979.42
2018-07-02T03:33:05.690Z,979.36
2018-07-02T03:34:05.503Z,979.33
2018-07-02T03:35:05.868Z,979.22
2018-07-02T03:36:06.181Z,979.27
2018-07-02T03:37:05.290Z,979.36
2018-07-02T03:38:06.289Z,979.30
2018-07-02T03:39:05.327Z,979.30
2018-07-02T03:40:05.886Z,979.16
2018-07-02T03:41:05.340Z,979.22
2018-07-02T03:42:05.779Z,979.25
2018-07-02T03:43:05.668Z,979.30
2018-07-02T03:44:05.786Z,979.19
2018-07-02T03:45:05.825Z,979.24
2018-07-02T03:46:06.217Z,979.26
2018-07-02T03:47:05.288Z,979.29
2018-07-02T03:48:05.397Z,979.37
2018-07-02T03:49:05.639Z,979.31
2018-07-02T03:50:05.804Z,979.33
2018-07-02T03:51:05.587Z,979.30
2018-07-02T03:52:10.381Z,979.27
2018-07-02T03:53:05.773Z,979.29
2018-07-02T03:54:05.299Z,979.32
2018-07-02T03:55:06.161Z,979.37
2018-07-02T03:56:06.725Z,979.39
2018-07-02T03:57:10.075Z,979.24
2018-07-02T03:58:06.912Z,979.21
2018-07-02T03:59:05.491Z,979.37
2018-07-02T04:00:06.228Z,979.31
2018-07-02T04:01:05.189Z,979.42
2018-07-02T04:02:05.788Z,979.38
2018-07-02T04:03:05.272Z,979.23
2018-07-02T04:04:06.196Z,979.34
2018-07-02T04:05:06.105Z,979.45
2018-07-02T04:06:05.917Z,979.21
2018-07-02T04:07:05.256Z,979.44
2018-07-02T04:08:06.682Z,979.31
2018-07-02T04:09:05.781Z,979.36
2018-07-02T04:10:05.644Z,979.39
2018-07-02T04:11:05.050Z,979.44
2018-07-02T04:12:06.242Z,979.37
2018-07-02T04:13:05.919Z,979.31
2018-07-02T04:14:05.560Z,979.41
2018-07-02T04:15:06.123Z,979.38
2018-07-02T04:16:06.029Z,979.43
2018-07-02T04:17:06.271Z,979.45
2018-07-02T04:18:05.072Z,979.59
2018-07-02T04:19:05.886Z,979.38
2018-07-02T04:20:05.605Z,979.40
2018-07-02T04:21:06.382Z,979.36
2018-07-02T04:22:04.933Z,979.36
2018-07-02T04:23:05.912Z,979.38
2018-07-02T04:24:04.999Z,979.40
2018-07-02T04:25:06.400Z,979.48
2018-07-02T04:26:05.403Z,979.36
2018-07-02T04:27:05.613Z,979.41
2018-07-02T04:28:05.783Z,979.29
2018-07-02T04:29:05.272Z,979.48
2018-07-02T04:30:05.140Z,979.45
2018-07-02T04:31:06.385Z,979.56
2018-07-02T04:32:05.594Z,979.50
2018-07-02T04:33:05.331Z,979.63
2018-07-02T04:34:06.678Z,979.46
2018-07-02T04:35:05.621Z,979.36
2018-07-02T04:36:05.339Z,979.47
2018-07-02T04:37:05.851Z,979.55
2018-07-02T04:38:05.568Z,979.49
2018-07-02T04:39:07.397Z,979.46
2018-07-02T04:40:05.912Z,979.51
2018-07-02T04:41:06.225Z,979.45
2018-07-02T04:42:06.101Z,979.50
2018-07-02T04:43:06.442Z,979.41
2018-07-02T04:44:05.778Z,979.49
2018-07-02T04:45:05.522Z,979.43
2018-07-02T04:46:06.044Z,979.57
2018-07-02T04:47:06.332Z,979.48
2018-07-02T04:48:05.935Z,979.44
2018-07-02T04:49:06.039Z,979.59
2018-07-02T04:50:05.491Z,979.52
2018-07-02T04:51:06.396Z,979.43
2018-07-02T04:52:06.356Z,979.43
2018-07-02T04:53:06.735Z,979.51
2018-07-02T04:54:05.836Z,979.57
2018-07-02T04:55:05.284Z,979.53
2018-07-02T04:56:05.869Z,979.62
2018-07-02T04:57:05.845Z,979.47
2018-07-02T04:58:06.147Z,979.58
2018-07-02T04:59:06.678Z,979.64
2018-07-02T05:00:05.629Z,979.63
2018-07-02T05:01:06.130Z,979.69
2018-07-02T05:02:05.617Z,979.54
2018-07-02T05:03:05.517Z,979.59
2018-07-02T05:04:04.968Z,979.59
2018-07-02T05:05:05.798Z,979.50
2018-07-02T05:06:10.569Z,979.67
2018-07-02T05:07:05.840Z,979.61
2018-07-02T05:08:05.875Z,979.64
2018-07-02T05:09:05.123Z,979.61
2018-07-02T05:10:05.874Z,979.72
2018-07-02T05:11:05.559Z,979.60
2018-07-02T05:12:05.490Z,979.51
2018-07-02T05:13:05.005Z,979.53
2018-07-02T05:14:05.693Z,979.70
2018-07-02T05:15:05.815Z,979.64
2018-07-02T05:16:05.778Z,979.58
2018-07-02T05:17:06.157Z,979.66
2018-07-02T05:18:05.688Z,979.66
2018-07-02T05:19:05.355Z,979.51
2018-07-02T05:20:05.409Z,979.63
2018-07-02T05:21:05.246Z,979.54
2018-07-02T05:22:06.292Z,979.65
2018-07-02T05:23:05.042Z,979.59
2018-07-02T05:24:05.151Z,979.53
2018-07-02T05:25:05.044Z,979.56
2018-07-02T05:26:06.079Z,979.44
2018-07-02T05:27:05.724Z,979.58
2018-07-02T05:28:04.970Z,979.49
2018-07-02T05:29:05.426Z,979.64
2018-07-02T05:30:05.815Z,979.46
2018-07-02T05:31:05.461Z,979.72
2018-07-02T05:32:05.545Z,979.69
2018-07-02T05:33:05.063Z,979.69
2018-07-02T05:34:05.478Z,979.63
2018-07-02T05:35:05.876Z,979.71
2018-07-02T05:36:05.022Z,979.71
2018-07-02T05:37:05.056Z,979.71
2018-07-02T05:38:05.416Z,979.68
2018-07-02T05:39:05.837Z,979.73
2018-07-02T05:40:05.578Z,979.73
2018-07-02T05:41:05.011Z,979.70
2018-07-02T05:42:05.905Z,979.67
2018-07-02T05:43:05.677Z,979.61
2018-07-02T05:44:05.174Z,979.63
2018-07-02T05:45:06.026Z,979.72
2018-07-02T05:46:05.551Z,979.72
2018-07-02T05:47:05.395Z,979.54
2018-07-02T05:48:06.156Z,979.75
2018-07-02T05:49:05.321Z,979.57
2018-07-02T05:50:05.410Z,979.63
2018-07-02T05:51:05.328Z,979.66
2018-07-02T05:52:05.786Z,979.62
2018-07-02T05:53:04.892Z,979.65
2018-07-02T05:54:04.917Z,979.68
2018-07-02T05:55:10.867Z,979.71
2018-07-02T05:56:05.685Z,979.59
2018-07-02T05:57:05.759Z,979.64
2018-07-02T05:58:05.220Z,979.58
2018-07-02T05:59:05.715Z,979.67
2018-07-02T06:00:05.797Z,979.70
2018-07-02T06:01:05.806Z,979.75
2018-07-02T06:02:04.881Z,979.81
2018-07-02T06:03:05.984Z,979.75
2018-07-02T06:04:04.981Z,979.63
2018-07-02T06:05:05.155Z,979.78
2018-07-02T06:06:05.253Z,979.63
2018-07-02T06:07:05.496Z,979.55
2018-07-02T06:08:05.883Z,979.57
2018-07-02T06:09:05.396Z,979.69
2018-07-02T06:10:05.547Z,979.57
2018-07-02T06:11:04.966Z,979.65
2018-07-02T06:12:05.557Z,979.71
2018-07-02T06:13:05.061Z,979.67
2018-07-02T06:14:05.037Z,979.64
2018-07-02T06:15:05.293Z,979.58
2018-07-02T06:16:05.619Z,979.72
2018-07-02T06:17:05.438Z,979.66
2018-07-02T06:18:05.472Z,979.72
2018-07-02T06:19:05.075Z,979.63
2018-07-02T06:20:05.422Z,979.59
2018-07-02T06:21:06.287Z,979.62
2018-07-02T06:22:06.109Z,979.62
2018-07-02T06:23:05.212Z,979.67
2018-07-02T06:24:05.661Z,979.67
2018-07-02T06:25:05.446Z,979.70
2018-07-02T06:26:05.374Z,979.61
2018-07-02T06:27:05.350Z,979.72
2018-07-02T06:28:05.454Z,979.72
2018-07-02T06:29:05.174Z,979.83
2018-07-02T06:30:05.187Z,979.72
2018-07-02T06:31:06.188Z,979.80
2018-07-02T06:32:05.781Z,979.74
2018-07-02T06:33:05.095Z,979.74
2018-07-02T06:34:04.991Z,979.68
2018-07-02T06:35:05.791Z,979.80
2018-07-02T06:36:05.635Z,979.65
2018-07-02T06:37:05.611Z,979.65
2018-07-02T06:38:05.648Z,979.71
2018-07-02T06:39:05.357Z,979.70
2018-07-02T06:40:05.132Z,979.79
2018-07-02T06:41:06.331Z,979.64
2018-07-02T06:42:05.451Z,979.61
2018-07-02T06:43:05.634Z,979.64
2018-07-02T06:44:05.208Z,979.67
2018-07-02T06:45:05.748Z,979.61
2018-07-02T06:46:05.590Z,979.58
2018-07-02T06:47:05.148Z,979.55
2018-07-02T06:48:05.874Z,979.61
2018-07-02T06:49:04.916Z,979.64
2018-07-02T06:50:09.945Z,979.69
2018-07-02T06:51:06.389Z,979.72
2018-07-02T06:52:06.208Z,979.55
2018-07-02T06:53:05.612Z,979.75
2018-07-02T06:54:05.366Z,979.67
2018-07-02T06:55:04.918Z,979.64
2018-07-02T06:56:05.508Z,979.67
2018-07-02T06:57:09.104Z,979.64
2018-07-02T06:58:04.993Z,979.67
2018-07-02T06:59:05.545Z,979.70
2018-07-02T07:00:05.605Z,979.64
2018-07-02T07:01:05.091Z,979.70
2018-07-02T07:02:05.481Z,979.67
2018-07-02T07:03:05.967Z,979.70
2018-07-02T07:04:06.556Z,979.76
2018-07-02T07:05:05.547Z,979.70
2018-07-02T07:06:10.634Z,979.55
2018-07-02T07:07:05.449Z,979.61
2018-07-02T07:08:05.065Z,979.63
2018-07-02T07:09:05.268Z,979.52
2018-07-02T07:10:05.219Z,979.72
2018-07-02T07:11:05.320Z,979.75
2018-07-02T07:12:05.491Z,979.58
2018-07-02T07:13:05.587Z,979.79
2018-07-02T07:14:05.493Z,979.64
2018-07-02T07:15:05.025Z,979.67
2018-07-02T07:16:04.955Z,979.64
2018-07-02T07:17:05.545Z,979.61
2018-07-02T07:18:05.296Z,979.70
2018-07-02T07:19:05.274Z,979.73
2018-07-02T07:20:05.665Z,979.76
2018-07-02T07:21:05.184Z,979.67
2018-07-02T07:22:05.413Z,979.79
2018-07-02T07:23:05.843Z,979.76
2018-07-02T07:24:05.299Z,979.67
2018-07-02T07:25:05.707Z,979.73
2018-07-02T07:26:05.793Z,979.56
2018-07-02T07:27:04.989Z,979.62
2018-07-02T07:28:05.309Z,979.65
2018-07-02T07:29:05.297Z,979.68
2018-07-02T07:30:05.350Z,979.74
2018-07-02T07:31:05.535Z,979.74
2018-07-02T07:32:05.804Z,979.71
2018-07-02T07:33:05.055Z,979.62
2018-07-02T07:34:05.817Z,979.70
2018-07-02T07:35:10.812Z,979.73
2018-07-02T07:36:05.284Z,979.67
2018-07-02T07:37:05.407Z,979.73
2018-07-02T07:38:04.945Z,979.67
2018-07-02T07:39:05.410Z,979.72
2018-07-02T07:40:05.216Z,979.57
2018-07-02T07:41:10.453Z,979.66
2018-07-02T07:42:05.162Z,979.60
2018-07-02T07:43:05.694Z,979.66
2018-07-02T07:44:08.237Z,979.69
2018-07-02T07:45:05.479Z,979.60
2018-07-02T07:46:05.048Z,979.63
2018-07-02T07:47:05.114Z,979.61
2018-07-02T07:48:05.434Z,979.64
2018-07-02T07:49:05.320Z,979.61
2018-07-02T07:50:05.572Z,979.58
2018-07-02T07:51:05.091Z,979.55
2018-07-02T07:52:05.467Z,979.58
2018-07-02T07:53:20.498Z,979.65
2018-07-02T07:54:05.253Z,979.56
2018-07-02T07:55:05.582Z,979.74
2018-07-02T07:56:05.571Z,979.56
2018-07-02T07:57:05.705Z,979.60
2018-07-02T07:58:05.785Z,979.48
2018-07-02T07:59:05.557Z,979.57
2018-07-02T08:00:05.602Z,979.57
2018-07-02T08:01:05.105Z,979.54
2018-07-02T08:02:05.760Z,979.48
2018-07-02T08:03:05.364Z,979.54
2018-07-02T08:04:05.129Z,979.54
2018-07-02T08:05:05.356Z,979.45
2018-07-02T08:06:05.397Z,979.54
2018-07-02T08:07:05.428Z,979.45
2018-07-02T08:08:05.608Z,979.59
2018-07-02T08:09:05.835Z,979.57
2018-07-02T08:10:05.629Z,979.54
2018-07-02T08:11:05.867Z,979.42
2018-07-02T08:12:05.821Z,979.48
2018-07-02T08:13:05.213Z,979.48
2018-07-02T08:14:05.088Z,979.51
2018-07-02T08:15:05.445Z,979.60
2018-07-02T08:16:05.525Z,979.54
2018-07-02T08:17:04.923Z,979.51
2018-07-02T08:18:05.706Z,979.45
2018-07-02T08:19:05.809Z,979.51
2018-07-02T08:20:10.050Z,979.66
2018-07-02T08:21:05.669Z,979.57
2018-07-02T08:22:05.572Z,979.60
2018-07-02T08:23:05.885Z,979.46
2018-07-02T08:24:05.152Z,979.55
2018-07-02T08:25:05.708Z,979.58
2018-07-02T08:26:05.281Z,979.49
2018-07-02T08:27:05.790Z,979.55
2018-07-02T08:28:05.740Z,979.67
2018-07-02T08:29:06.280Z,979.55
2018-07-02T08:30:05.494Z,979.67
2018-07-02T08:31:05.242Z,979.64
2018-07-02T08:32:05.141Z,979.55
2018-07-02T08:33:05.344Z,979.55
2018-07-02T08:34:05.877Z,979.49
2018-07-02T08:35:04.869Z,979.64
2018-07-02T08:36:05.544Z,979.70
2018-07-02T08:37:05.669Z,979.70
2018-07-02T08:38:05.297Z,979.53
2018-07-02T08:39:05.756Z,979.74
2018-07-02T08:40:05.047Z,979.51
2018-07-02T08:41:05.373Z,979.54
2018-07-02T08:42:10.086Z,979.68
2018-07-02T08:43:05.175Z,979.57
2018-07-02T08:44:04.928Z,979.54
2018-07-02T08:45:05.817Z,979.45
2018-07-02T08:46:05.827Z,979.30
2018-07-02T08:47:05.041Z,979.59
2018-07-02T08:48:05.779Z,979.57
2018-07-02T08:49:05.761Z,979.60
2018-07-02T08:50:05.598Z,979.57
2018-07-02T08:51:05.277Z,979.66
2018-07-02T08:52:05.571Z,979.42
2018-07-02T08:53:05.099Z,979.51
2018-07-02T08:54:05.767Z,979.54
2018-07-02T08:55:05.408Z,979.54
2018-07-02T08:56:05.884Z,979.54
2018-07-02T08:57:05.935Z,979.48
2018-07-02T08:58:08.076Z,979.59
2018-07-02T08:59:05.188Z,979.45
2018-07-02T09:00:05.312Z,979.59
2018-07-02T09:01:04.830Z,979.59
2018-07-02T09:02:05.553Z,979.65
2018-07-02T09:03:05.660Z,979.66
2018-07-02T09:04:05.138Z,979.63
2018-07-02T09:05:05.288Z,979.60
2018-07-02T09:06:05.940Z,979.66
2018-07-02T09:07:05.384Z,979.60
2018-07-02T09:08:05.328Z,979.54
2018-07-02T09:09:05.678Z,979.48
2018-07-02T09:10:05.128Z,979.57
2018-07-02T09:11:05.955Z,979.57
2018-07-02T09:12:05.489Z,979.54
2018-07-02T09:13:05.454Z,979.34
2018-07-02T09:14:05.439Z,979.60
2018-07-02T09:15:05.585Z,979.42
2018-07-02T09:16:05.825Z,979.51
2018-07-02T09:17:05.532Z,979.42
2018-07-02T09:18:05.521Z,979.39
2018-07-02T09:19:05.168Z,979.34
2018-07-02T09:20:05.265Z,979.42
2018-07-02T09:21:05.648Z,979.42
2018-07-02T09:22:05.004Z,979.51
2018-07-02T09:23:05.189Z,979.43
2018-07-02T09:24:05.117Z,979.37
2018-07-02T09:25:05.762Z,979.49
2018-07-02T09:26:06.107Z,979.43
2018-07-02T09:27:05.601Z,979.34
2018-07-02T09:28:05.079Z,979.40
2018-07-02T09:29:05.258Z,979.37
2018-07-02T09:30:05.401Z,979.34
2018-07-02T09:31:05.585Z,979.31
2018-07-02T09:32:05.777Z,979.42
2018-07-02T09:33:06.149Z,979.39
2018-07-02T09:34:05.034Z,979.36
2018-07-02T09:35:04.869Z,979.39
2018-07-02T09:36:05.428Z,979.54
2018-07-02T09:37:05.758Z,979.48
2018-07-02T09:38:05.784Z,979.25
2018-07-02T09:39:05.481Z,979.39
2018-07-02T09:40:05.777Z,979.51
2018-07-02T09:41:05.372Z,979.31
2018-07-02T09:42:05.856Z,979.37
2018-07-02T09:43:05.238Z,979.48
2018-07-02T09:44:05.295Z,979.40
2018-07-02T09:45:06.198Z,979.34
2018-07-02T09:46:10.174Z,979.43
2018-07-02T09:47:05.226Z,979.40
2018-07-02T09:48:05.713Z,979.40
2018-07-02T09:49:04.991Z,979.35
2018-07-02T09:50:05.473Z,979.26
2018-07-02T09:51:05.662Z,979.40
2018-07-02T09:52:05.917Z,979.28
2018-07-02T09:53:05.366Z,979.54
2018-07-02T09:54:05.306Z,979.34
2018-07-02T09:55:05.712Z,979.36
2018-07-02T09:56:05.238Z,979.25
2018-07-02T09:57:04.908Z,979.39
2018-07-02T09:58:05.622Z,979.33
2018-07-02T09:59:05.155Z,979.36
2018-07-02T10:00:05.040Z,979.36
2018-07-02T10:01:05.732Z,979.45
2018-07-02T10:02:05.457Z,979.51
2018-07-02T10:03:05.573Z,979.42
2018-07-02T10:04:04.905Z,979.39
2018-07-02T10:05:05.066Z,979.33
2018-07-02T10:06:05.226Z,979.42
2018-07-02T10:07:05.549Z,979.33
2018-07-02T10:08:05.254Z,979.42
2018-07-02T10:09:05.223Z,979.41
2018-07-02T10:10:06.115Z,979.33
2018-07-02T10:11:05.970Z,979.56
2018-07-02T10:12:05.527Z,979.35
2018-07-02T10:13:06.163Z,979.38
2018-07-02T10:14:04.956Z,979.41
2018-07-02T10:15:08.633Z,979.47
2018-07-02T10:16:05.438Z,979.44
2018-07-02T10:17:04.897Z,979.41
2018-07-02T10:18:05.153Z,979.38
2018-07-02T10:19:05.720Z,979.38
2018-07-02T10:20:05.338Z,979.47
2018-07-02T10:21:04.880Z,979.44
2018-07-02T10:22:05.825Z,979.35
2018-07-02T10:23:05.112Z,979.44
2018-07-02T10:24:05.343Z,979.35
2018-07-02T10:25:05.430Z,979.47
2018-07-02T10:26:05.488Z,979.41
2018-07-02T10:27:05.634Z,979.36
2018-07-02T10:28:05.878Z,979.50
2018-07-02T10:29:05.148Z,979.39
2018-07-02T10:30:10.830Z,979.36
2018-07-02T10:31:05.818Z,979.54
2018-07-02T10:32:05.372Z,979.30
2018-07-02T10:33:05.311Z,979.42
2018-07-02T10:34:05.548Z,979.45
2018-07-02T10:35:04.974Z,979.36
2018-07-02T10:36:06.695Z,979.39
2018-07-02T10:37:05.745Z,979.41
2018-07-02T10:38:05.780Z,979.38
2018-07-02T10:39:10.494Z,979.44
2018-07-02T10:40:05.085Z,979.41
2018-07-02T10:41:05.330Z,979.44
2018-07-02T10:42:11.499Z,979.29
2018-07-02T10:43:05.515Z,979.20
2018-07-02T10:44:05.520Z,979.37
2018-07-02T10:45:05.138Z,979.37
2018-07-02T10:46:05.745Z,979.29
2018-07-02T10:47:06.002Z,979.31
2018-07-02T10:48:05.781Z,979.34
2018-07-02T10:49:05.068Z,979.34
2018-07-02T10:50:05.628Z,979.25
2018-07-02T10:51:05.466Z,979.25
2018-07-02T10:52:05.550Z,979.25
2018-07-02T10:53:05.357Z,979.28
2018-07-02T10:54:05.432Z,979.28
2018-07-02T10:55:05.697Z,979.30
2018-07-02T10:56:07.203Z,979.30
2018-07-02T10:57:04.979Z,979.27
2018-07-02T10:58:05.328Z,979.19
2018-07-02T10:59:05.974Z,979.34
2018-07-02T11:00:04.909Z,979.28
2018-07-02T11:01:05.640Z,979.31
2018-07-02T11:02:05.542Z,979.28
2018-07-02T11:03:05.744Z,979.34
2018-07-02T11:04:04.863Z,979.34
2018-07-02T11:05:05.630Z,979.22
2018-07-02T11:06:05.236Z,979.22
2018-07-02T11:07:05.221Z,979.13
2018-07-02T11:08:05.576Z,979.25
2018-07-02T11:09:05.125Z,979.10
2018-07-02T11:10:05.897Z,978.98
2018-07-02T11:11:04.957Z,979.24
2018-07-02T11:12:05.435Z,979.13
2018-07-02T11:13:05.372Z,979.01
2018-07-02T11:14:07.145Z,979.10
2018-07-02T11:15:05.321Z,979.12
2018-07-02T11:16:05.241Z,979.12
2018-07-02T11:17:05.485Z,979.01
2018-07-02T11:18:05.564Z,979.12
2018-07-02T11:19:05.574Z,979.04
2018-07-02T11:20:05.346Z,979.07
2018-07-02T11:21:04.996Z,979.01
2018-07-02T11:22:05.655Z,979.01
2018-07-02T11:23:05.032Z,979.01
2018-07-02T11:24:05.522Z,979.01
2018-07-02T11:25:05.928Z,978.89
2018-07-02T11:26:05.202Z,978.87
2018-07-02T11:27:05.064Z,978.99
2018-07-02T11:28:04.958Z,978.84
2018-07-02T11:29:05.320Z,978.87
2018-07-02T11:30:05.044Z,978.76
2018-07-02T11:31:05.335Z,978.90
2018-07-02T11:32:05.828Z,978.88
2018-07-02T11:33:05.784Z,978.82
2018-07-02T11:34:05.452Z,978.82
2018-07-02T11:35:05.898Z,978.82
2018-07-02T11:36:05.281Z,978.93
2018-07-02T11:37:05.418Z,978.90
2018-07-02T11:38:04.865Z,978.76
2018-07-02T11:39:10.345Z,978.79
2018-07-02T11:40:05.561Z,978.76
2018-07-02T11:41:05.811Z,978.76
2018-07-02T11:42:05.663Z,978.79
2018-07-02T11:43:05.211Z,978.82
2018-07-02T11:44:05.479Z,978.85
2018-07-02T11:45:05.021Z,978.73
2018-07-02T11:46:05.967Z,978.85
2018-07-02T11:47:05.849Z,978.76
2018-07-02T11:48:05.755Z,978.70
2018-07-02T11:49:05.943Z,978.76
2018-07-02T11:50:04.975Z,978.79
2018-07-02T11:51:05.126Z,978.84
2018-07-02T11:52:05.388Z,978.87
2018-07-02T11:53:05.067Z,978.70
2018-07-02T11:54:05.101Z,978.78
2018-07-02T11:55:05.578Z,978.70
2018-07-02T11:56:05.485Z,978.70
2018-07-02T11:57:05.108Z,978.41
2018-07-02T11:58:05.270Z,978.64
2018-07-02T11:59:05.899Z,978.66
2018-07-02T12:00:05.630Z,978.81
2018-07-02T12:01:05.138Z,978.63
2018-07-02T12:02:06.054Z,978.72
2018-07-02T12:03:06.058Z,978.52
2018-07-02T12:04:06.137Z,978.70
2018-07-02T12:05:05.266Z,978.73
2018-07-02T12:06:05.272Z,978.87
2018-07-02T12:07:05.672Z,978.61
2018-07-02T12:08:05.816Z,978.75
2018-07-02T12:09:05.995Z,978.75
2018-07-02T12:10:04.904Z,978.84
2018-07-02T12:11:05.291Z,978.87
2018-07-02T12:12:05.269Z,978.69
2018-07-02T12:13:06.701Z,978.78
2018-07-02T12:14:05.477Z,978.78
2018-07-02T12:15:06.265Z,978.84
2018-07-02T12:16:04.948Z,978.72
2018-07-02T12:17:05.588Z,978.66
2018-07-02T12:18:04.874Z,978.72
2018-07-02T12:19:04.829Z,978.81
2018-07-02T12:20:05.173Z,978.72
2018-07-02T12:21:05.266Z,978.72
2018-07-02T12:22:05.032Z,978.75
2018-07-02T12:23:05.119Z,978.78
2018-07-02T12:24:05.101Z,978.84
2018-07-02T12:25:05.516Z,978.87
2018-07-02T12:26:05.806Z,978.60
2018-07-02T12:27:05.723Z,978.64
2018-07-02T12:28:05.667Z,978.73